Harenkarspel, Netherlands
Current Conditions -  °F | °C
As of 9:25 AM on Thursday 29 Jan 2015 (Local Time) from EHKD Reporting Station
Light Rain Light Rain  
Wind Chill: 28°   Ceiling: 5100
Heat Index: 39°   Visibility: 6mi
Dew Point: 32°   Wind: 26mph
Humidity: 75%   Direction: 250°WSW
Pressure: 29.06"   Gusts: NA
Location:  52.73°N, 4.78°E
Report Text: EHKD 290825Z AUTO 25023KT 9999 -RA FEW027 SCT039 BKN051 04/M00 Q0984 BLU 26025G35KT 9999 SCT030 BKN050 TEMPO 28030G45KT 4000 SHRASN FEW010 SCT015CB BKN025
Loading
Personal Weather Stations






























Interactive Weather Map New forecast layout! Learn more

10-Day Weather Forecast

Advertisements
Track Severe Weather on mobile